createdAt,value
2023-12-09T00:01:02.529Z,13.57
2023-12-09T00:03:30.489Z,12.90
2023-12-09T00:05:59.927Z,11.93
2023-12-09T00:08:27.818Z,12.50
2023-12-09T00:10:55.667Z,12.67
2023-12-09T00:13:23.512Z,12.33
2023-12-09T00:15:51.397Z,10.33
2023-12-09T00:18:19.441Z,10.77
2023-12-09T00:20:47.547Z,10.47
2023-12-09T00:23:16.880Z,9.87
2023-12-09T00:25:45.312Z,10.20
2023-12-09T00:28:13.253Z,11.77
2023-12-09T00:30:41.169Z,12.60
2023-12-09T00:33:09.584Z,11.47
2023-12-09T00:35:37.508Z,10.43
2023-12-09T00:38:05.406Z,10.43
2023-12-09T00:40:34.606Z,9.80
2023-12-09T00:43:02.490Z,10.20
2023-12-09T00:45:32.244Z,9.03
2023-12-09T00:48:00.944Z,10.23
2023-12-09T00:50:28.936Z,10.63
2023-12-09T00:52:56.765Z,11.50
2023-12-09T00:55:24.597Z,11.63
2023-12-09T00:57:53.794Z,12.03
2023-12-09T01:00:21.919Z,12.17
2023-12-09T01:02:49.912Z,11.07
2023-12-09T01:05:18.029Z,11.50
2023-12-09T01:07:46.076Z,11.70
2023-12-09T01:10:14.101Z,11.33
2023-12-09T01:12:42.008Z,10.30
2023-12-09T01:15:11.847Z,10.40
2023-12-09T01:17:39.788Z,10.20
2023-12-09T01:20:08.937Z,10.67
2023-12-09T01:22:36.925Z,9.50
2023-12-09T01:25:05.460Z,8.87
2023-12-09T01:27:33.303Z,8.73
2023-12-09T01:30:01.370Z,8.43
2023-12-09T01:32:30.920Z,8.60
2023-12-09T01:34:59.220Z,9.43
2023-12-09T01:37:27.314Z,8.63
2023-12-09T01:39:55.139Z,9.27
2023-12-09T01:42:23.049Z,10.63
2023-12-09T01:44:50.927Z,11.33
2023-12-09T01:47:18.837Z,12.93
2023-12-09T01:49:49.022Z,13.50
2023-12-09T01:52:17.234Z,12.93
2023-12-09T01:54:45.087Z,11.53
2023-12-09T01:57:13.012Z,12.13
2023-12-09T01:59:40.908Z,12.87
2023-12-09T02:02:09.541Z,11.77
2023-12-09T02:04:37.733Z,11.37
2023-12-09T02:07:07.087Z,11.33
2023-12-09T02:09:36.147Z,11.00
2023-12-09T02:12:08.689Z,10.10
2023-12-09T02:14:42.044Z,9.80
2023-12-09T02:17:14.876Z,8.23
2023-12-09T02:19:44.007Z,9.37
2023-12-09T02:22:13.203Z,7.77
2023-12-09T02:24:42.413Z,9.53
2023-12-09T02:27:13.517Z,10.00
2023-12-09T02:29:51.989Z,8.60
2023-12-09T02:32:23.023Z,9.90
2023-12-09T02:34:51.799Z,9.97
2023-12-09T02:37:21.773Z,11.17
2023-12-09T02:39:51.733Z,10.83
2023-12-09T02:42:20.483Z,10.00
2023-12-09T02:44:50.215Z,10.70
2023-12-09T02:47:18.323Z,10.67
2023-12-09T02:49:46.261Z,11.80
2023-12-09T02:52:14.146Z,10.57
2023-12-09T02:54:41.958Z,10.60
2023-12-09T02:57:11.181Z,10.13
2023-12-09T02:59:39.196Z,9.83
2023-12-09T03:02:07.067Z,9.63
2023-12-09T03:04:35.413Z,10.30
2023-12-09T03:07:03.232Z,10.73
2023-12-09T03:09:31.132Z,10.30
2023-12-09T03:11:58.989Z,10.90
2023-12-09T03:14:28.192Z,10.40
2023-12-09T03:16:56.000Z,10.77
2023-12-09T03:19:23.954Z,10.33
2023-12-09T03:21:51.847Z,10.57
2023-12-09T03:24:19.707Z,9.77
2023-12-09T03:26:51.892Z,10.70
2023-12-09T03:29:20.553Z,11.17
2023-12-09T03:31:50.167Z,10.77
2023-12-09T03:34:18.251Z,10.03
2023-12-09T03:36:46.115Z,10.53
2023-12-09T03:39:14.378Z,10.27
2023-12-09T03:41:42.228Z,9.60
2023-12-09T03:44:10.094Z,7.93
2023-12-09T03:46:38.299Z,8.50
2023-12-09T03:49:07.978Z,8.03
2023-12-09T03:51:36.501Z,8.77
2023-12-09T03:54:05.204Z,9.43
2023-12-09T03:56:33.243Z,8.60
2023-12-09T03:59:01.422Z,8.80
2023-12-09T04:01:29.317Z,8.77
2023-12-09T04:03:57.889Z,8.37
2023-12-09T04:06:27.154Z,9.50
2023-12-09T04:08:55.015Z,9.23
2023-12-09T04:11:22.863Z,9.43
2023-12-09T04:13:50.681Z,9.57
2023-12-09T04:16:18.535Z,8.90
2023-12-09T04:18:46.482Z,9.20
2023-12-09T04:21:14.515Z,9.97
2023-12-09T04:23:43.750Z,10.00
2023-12-09T04:26:11.594Z,9.27
2023-12-09T04:28:39.481Z,8.20
2023-12-09T04:31:07.781Z,7.73
2023-12-09T04:33:35.961Z,7.03
2023-12-09T04:36:04.245Z,6.10
2023-12-09T04:38:32.189Z,6.33
2023-12-09T04:41:02.893Z,5.53
2023-12-09T04:43:30.826Z,5.80
2023-12-09T04:45:58.687Z,9.23
2023-12-09T04:48:27.449Z,10.13
2023-12-09T04:50:55.332Z,8.47
2023-12-09T04:53:23.225Z,8.93
2023-12-09T04:55:51.024Z,8.57
2023-12-09T04:58:20.603Z,8.27
2023-12-09T05:00:48.697Z,8.17
2023-12-09T05:03:17.277Z,7.87
2023-12-09T05:05:45.214Z,7.17
2023-12-09T05:08:13.063Z,7.40
2023-12-09T05:10:40.874Z,6.27
2023-12-09T05:13:08.680Z,6.40
2023-12-09T05:15:38.029Z,8.03
2023-12-09T05:18:05.970Z,8.10
2023-12-09T05:20:34.973Z,8.53
2023-12-09T05:23:03.953Z,8.27
2023-12-09T05:25:32.680Z,8.07
2023-12-09T05:28:02.285Z,7.93
2023-12-09T05:30:30.386Z,8.17
2023-12-09T05:33:00.368Z,7.73
2023-12-09T05:35:28.431Z,7.57
2023-12-09T05:37:56.323Z,6.17
2023-12-09T05:40:24.200Z,5.93
2023-12-09T05:42:52.201Z,5.87
2023-12-09T05:45:20.123Z,5.53
2023-12-09T05:47:48.013Z,4.87
2023-12-09T05:50:17.160Z,5.50
2023-12-09T05:52:44.990Z,5.90
2023-12-09T05:55:16.995Z,5.93
2023-12-09T05:57:45.130Z,7.50
2023-12-09T06:00:14.237Z,8.40
2023-12-09T06:02:43.223Z,8.40
2023-12-09T06:05:11.448Z,9.70
2023-12-09T06:07:40.660Z,8.73
2023-12-09T06:10:09.331Z,8.70
2023-12-09T06:12:37.492Z,9.57
2023-12-09T06:15:06.390Z,9.73
2023-12-09T06:17:34.390Z,10.07
2023-12-09T06:20:02.655Z,8.67
2023-12-09T06:22:31.618Z,8.67
2023-12-09T06:25:00.933Z,8.60
2023-12-09T06:27:28.775Z,8.73
2023-12-09T06:29:56.691Z,9.70
2023-12-09T06:32:24.773Z,8.70
2023-12-09T06:34:52.750Z,9.57
2023-12-09T06:37:20.772Z,8.97
2023-12-09T06:39:48.828Z,9.23
2023-12-09T06:42:18.111Z,9.57
2023-12-09T06:45:07.998Z,9.43
2023-12-09T06:47:36.335Z,8.47
2023-12-09T06:50:04.904Z,8.83
2023-12-09T06:52:32.644Z,8.57
2023-12-09T06:55:00.339Z,8.20
2023-12-09T06:57:29.602Z,8.90
2023-12-09T06:59:57.428Z,7.33
2023-12-09T07:02:31.341Z,8.43
2023-12-09T07:05:05.150Z,8.20
2023-12-09T07:07:34.096Z,8.40
2023-12-09T07:10:01.766Z,8.23
2023-12-09T07:12:31.251Z,8.17
2023-12-09T07:15:00.305Z,8.87
2023-12-09T07:17:28.691Z,9.17
2023-12-09T07:19:57.858Z,8.77
2023-12-09T07:22:29.002Z,8.20
2023-12-09T07:24:57.098Z,8.87
2023-12-09T07:27:25.048Z,8.70
2023-12-09T07:29:54.470Z,9.17
2023-12-09T07:32:22.700Z,8.63
2023-12-09T07:34:51.275Z,9.23
2023-12-09T07:37:19.685Z,9.53
2023-12-09T07:39:47.289Z,9.07
2023-12-09T07:42:15.062Z,9.93
2023-12-09T07:44:42.703Z,9.80
2023-12-09T07:47:12.055Z,10.00
2023-12-09T07:49:40.089Z,9.40
2023-12-09T07:52:08.160Z,9.33
2023-12-09T07:54:35.840Z,8.33
2023-12-09T07:57:04.079Z,9.70
2023-12-09T07:59:31.714Z,9.20
2023-12-09T08:01:59.778Z,9.40
2023-12-09T08:04:28.895Z,9.40
2023-12-09T08:06:57.131Z,8.87
2023-12-09T08:09:25.365Z,9.40
2023-12-09T08:11:53.797Z,9.57
2023-12-09T08:14:22.503Z,10.60
2023-12-09T08:16:50.195Z,9.27
2023-12-09T08:19:18.562Z,9.93
2023-12-09T08:21:48.371Z,9.90
2023-12-09T08:24:16.083Z,8.67
2023-12-09T08:26:43.820Z,9.73
2023-12-09T08:29:12.960Z,9.50
2023-12-09T08:31:40.613Z,9.33
2023-12-09T08:34:08.437Z,8.83
2023-12-09T08:36:36.426Z,9.67
2023-12-09T08:39:05.675Z,9.50
2023-12-09T08:41:35.803Z,9.93
2023-12-09T08:44:04.722Z,9.40
2023-12-09T08:46:32.343Z,9.60
2023-12-09T08:49:00.080Z,9.53
2023-12-09T08:51:27.813Z,9.80
2023-12-09T08:53:55.620Z,9.90
2023-12-09T08:56:25.383Z,9.47
2023-12-09T08:58:53.154Z,8.73
2023-12-09T09:01:20.762Z,9.50
2023-12-09T09:03:48.448Z,9.20
2023-12-09T09:06:16.241Z,7.70
2023-12-09T09:08:45.816Z,8.47
2023-12-09T09:11:13.934Z,8.00
2023-12-09T09:13:43.308Z,8.17
2023-12-09T09:16:11.263Z,10.73
2023-12-09T09:18:38.998Z,9.20
2023-12-09T09:21:06.895Z,9.53
2023-12-09T09:23:35.279Z,8.70
2023-12-09T09:26:03.351Z,8.50
2023-12-09T09:28:31.134Z,8.97
2023-12-09T09:31:00.821Z,7.87
2023-12-09T09:33:31.673Z,7.40
2023-12-09T09:35:59.924Z,6.57
2023-12-09T09:38:27.622Z,6.97
2023-12-09T09:40:56.944Z,6.60
2023-12-09T09:43:28.427Z,5.83
2023-12-09T09:46:02.634Z,7.13
2023-12-09T09:48:34.787Z,7.00
2023-12-09T09:51:07.406Z,7.40
2023-12-09T09:53:38.671Z,7.17
2023-12-09T09:56:08.621Z,7.50
2023-12-09T09:58:36.899Z,6.50
2023-12-09T10:01:07.931Z,6.60
2023-12-09T10:03:35.689Z,6.53
2023-12-09T10:06:05.471Z,7.03
2023-12-09T10:08:33.433Z,6.17
2023-12-09T10:11:01.157Z,5.53
2023-12-09T10:13:28.928Z,5.90
2023-12-09T10:15:56.566Z,5.40
2023-12-09T10:18:26.994Z,5.60
2023-12-09T10:20:54.788Z,5.70
2023-12-09T10:23:23.333Z,6.23
2023-12-09T10:25:51.066Z,6.13
2023-12-09T10:28:18.766Z,6.63
2023-12-09T10:30:47.621Z,5.20
2023-12-09T10:33:17.082Z,5.07
2023-12-09T10:35:46.604Z,5.27
2023-12-09T10:38:17.740Z,5.17
2023-12-09T10:40:45.789Z,5.70
2023-12-09T10:43:14.863Z,5.17
2023-12-09T10:45:42.712Z,5.67
2023-12-09T10:48:10.592Z,5.17
2023-12-09T10:50:38.853Z,4.93
2023-12-09T10:53:08.157Z,5.00
2023-12-09T10:55:35.845Z,4.80
2023-12-09T10:58:06.374Z,5.30
2023-12-09T11:00:37.586Z,5.63
2023-12-09T11:03:08.322Z,5.03
2023-12-09T11:05:45.583Z,4.60
2023-12-09T11:08:16.260Z,4.93
2023-12-09T11:10:44.329Z,5.50
2023-12-09T11:13:12.149Z,5.20
2023-12-09T11:15:39.869Z,4.90
2023-12-09T11:18:10.234Z,5.10
2023-12-09T11:20:40.913Z,4.73
2023-12-09T11:23:11.608Z,5.23
2023-12-09T11:25:42.341Z,4.10
2023-12-09T11:28:12.108Z,4.23
2023-12-09T11:30:42.088Z,4.40
2023-12-09T11:33:11.237Z,4.13
2023-12-09T11:35:39.809Z,4.00
2023-12-09T11:38:09.793Z,4.20
2023-12-09T11:40:37.762Z,4.23
2023-12-09T11:43:09.324Z,5.00
2023-12-09T11:45:38.037Z,5.00
2023-12-09T11:48:07.472Z,5.50
2023-12-09T11:50:35.504Z,4.87
2023-12-09T11:53:03.249Z,5.13
2023-12-09T11:55:30.905Z,5.10
2023-12-09T11:57:58.553Z,4.67
2023-12-09T12:00:27.901Z,4.60
2023-12-09T12:02:55.679Z,4.73
2023-12-09T12:05:24.171Z,4.40
2023-12-09T12:07:52.349Z,4.23
2023-12-09T12:10:20.112Z,4.50
2023-12-09T12:12:47.921Z,4.33
2023-12-09T12:15:15.791Z,4.63
2023-12-09T12:17:45.550Z,4.57
2023-12-09T12:20:14.108Z,4.90
2023-12-09T12:22:42.781Z,4.83
2023-12-09T12:25:11.386Z,5.17
2023-12-09T12:27:45.169Z,4.33
2023-12-09T12:30:14.367Z,4.70
2023-12-09T12:32:42.176Z,4.53
2023-12-09T12:35:11.943Z,4.80
2023-12-09T12:37:39.653Z,4.23
2023-12-09T12:40:08.815Z,4.37
2023-12-09T12:42:37.136Z,4.00
2023-12-09T12:45:09.462Z,3.90
2023-12-09T12:47:37.650Z,4.00
2023-12-09T12:50:05.944Z,3.80
2023-12-09T12:52:34.942Z,3.90
2023-12-09T12:55:04.107Z,3.40
2023-12-09T12:57:31.912Z,3.47
2023-12-09T13:00:04.129Z,4.23
2023-12-09T13:02:37.640Z,3.20
2023-12-09T13:05:06.102Z,3.33
2023-12-09T13:07:35.256Z,3.33
2023-12-09T13:10:05.039Z,3.43
2023-12-09T13:12:32.783Z,4.23
2023-12-09T13:15:00.562Z,3.87
2023-12-09T13:17:28.307Z,3.90
2023-12-09T13:19:56.082Z,3.33
2023-12-09T13:22:24.001Z,3.60
2023-12-09T13:24:53.266Z,3.70
2023-12-09T13:27:21.958Z,3.93
2023-12-09T13:29:50.155Z,3.87
2023-12-09T13:32:17.885Z,3.80
2023-12-09T13:34:45.569Z,3.70
2023-12-09T13:37:13.559Z,3.73
2023-12-09T13:39:41.904Z,3.90
2023-12-09T13:42:13.742Z,4.13
2023-12-09T13:44:42.121Z,4.20
2023-12-09T13:47:09.940Z,3.80
2023-12-09T13:49:37.808Z,4.07
2023-12-09T13:52:06.552Z,3.80
2023-12-09T13:54:34.452Z,3.70
2023-12-09T13:57:02.560Z,3.47
2023-12-09T13:59:31.668Z,3.30
2023-12-09T14:01:59.381Z,3.50
2023-12-09T14:04:27.241Z,3.57
2023-12-09T14:06:55.242Z,3.30
2023-12-09T14:09:24.273Z,3.33
2023-12-09T14:11:52.035Z,3.50
2023-12-09T14:14:19.758Z,3.73
2023-12-09T14:16:49.148Z,3.20
2023-12-09T14:19:17.275Z,4.03
2023-12-09T14:21:45.732Z,3.97
2023-12-09T14:24:13.572Z,4.33
2023-12-09T14:26:41.622Z,3.83
2023-12-09T14:29:09.328Z,3.70
2023-12-09T14:31:37.037Z,4.67
2023-12-09T14:34:07.011Z,3.83
2023-12-09T14:36:35.286Z,3.87
2023-12-09T14:39:04.497Z,3.73
2023-12-09T14:41:32.358Z,3.43
2023-12-09T14:44:06.043Z,3.87
2023-12-09T14:46:36.791Z,4.03
2023-12-09T14:49:06.240Z,4.00
2023-12-09T14:51:40.925Z,3.40
2023-12-09T14:54:11.889Z,3.40
2023-12-09T14:56:39.688Z,3.30
2023-12-09T14:59:07.688Z,3.23
2023-12-09T15:01:35.723Z,3.27
2023-12-09T15:04:04.400Z,2.97
2023-12-09T15:06:34.480Z,3.30
2023-12-09T15:09:02.517Z,4.13
2023-12-09T15:11:30.384Z,3.10
2023-12-09T15:13:58.103Z,3.10
2023-12-09T15:16:27.235Z,4.17
2023-12-09T15:18:54.991Z,2.73
2023-12-09T15:21:23.457Z,3.07
2023-12-09T15:23:52.522Z,3.47
2023-12-09T15:26:20.849Z,3.40
2023-12-09T15:28:50.440Z,3.30
2023-12-09T15:31:18.333Z,3.13
2023-12-09T15:33:46.216Z,3.67
2023-12-09T15:36:14.791Z,3.10
2023-12-09T15:38:42.864Z,3.33
2023-12-09T15:41:12.002Z,3.63
2023-12-09T15:43:40.105Z,3.60
2023-12-09T15:46:08.069Z,4.30
2023-12-09T15:48:36.098Z,3.93
2023-12-09T15:51:06.285Z,4.07
2023-12-09T15:53:38.109Z,3.37
2023-12-09T15:56:07.310Z,3.10
2023-12-09T15:58:37.003Z,4.17
2023-12-09T16:01:05.193Z,4.50
2023-12-09T16:03:33.075Z,4.67
2023-12-09T16:06:00.868Z,5.23
2023-12-09T16:08:29.009Z,4.67
2023-12-09T16:10:56.695Z,4.30
2023-12-09T16:13:24.974Z,4.03
2023-12-09T16:15:54.282Z,5.13
2023-12-09T16:18:22.224Z,5.30
2023-12-09T16:20:50.649Z,6.23
2023-12-09T16:23:18.420Z,5.70
2023-12-09T16:25:46.145Z,5.53
2023-12-09T16:28:13.858Z,5.97
2023-12-09T16:30:43.168Z,6.27
2023-12-09T16:33:12.827Z,6.37
2023-12-09T16:35:40.625Z,6.10
2023-12-09T16:38:10.545Z,5.93
2023-12-09T16:40:38.570Z,4.80
2023-12-09T16:43:06.351Z,5.60
2023-12-09T16:45:36.041Z,6.70
2023-12-09T16:48:09.059Z,5.90
2023-12-09T16:50:41.342Z,5.33
2023-12-09T16:53:11.003Z,5.43
2023-12-09T16:55:44.864Z,6.23
2023-12-09T16:58:18.134Z,4.70
2023-12-09T17:00:47.813Z,5.53
2023-12-09T17:03:16.291Z,5.03
2023-12-09T17:05:45.397Z,4.93
2023-12-09T17:08:13.151Z,5.03
2023-12-09T17:10:45.916Z,5.00
2023-12-09T17:13:14.956Z,5.03
2023-12-09T17:15:43.354Z,5.40
2023-12-09T17:18:11.477Z,5.77
2023-12-09T17:20:39.766Z,5.20
2023-12-09T17:23:09.729Z,5.10
2023-12-09T17:25:37.732Z,5.30
2023-12-09T17:28:05.713Z,5.57
2023-12-09T17:30:33.451Z,6.27
2023-12-09T17:33:01.240Z,5.67
2023-12-09T17:35:30.444Z,5.57
2023-12-09T17:37:58.677Z,5.77
2023-12-09T17:40:28.029Z,6.10
2023-12-09T17:42:55.904Z,6.33
2023-12-09T17:45:24.214Z,6.80
2023-12-09T17:47:52.556Z,6.10
2023-12-09T17:50:20.449Z,6.80
2023-12-09T17:52:48.177Z,7.30
2023-12-09T17:55:16.074Z,6.57
2023-12-09T17:57:45.624Z,6.10
2023-12-09T18:00:14.992Z,5.77
2023-12-09T18:02:43.659Z,5.77
2023-12-09T18:05:11.537Z,6.27
2023-12-09T18:07:39.946Z,6.53
2023-12-09T18:10:08.999Z,6.93
2023-12-09T18:12:37.094Z,6.63
2023-12-09T18:15:07.683Z,6.63
2023-12-09T18:17:35.810Z,6.90
2023-12-09T18:20:04.058Z,6.40
2023-12-09T18:22:31.885Z,7.10
2023-12-09T18:25:01.059Z,7.77
2023-12-09T18:27:30.324Z,6.80
2023-12-09T18:29:58.877Z,6.57
2023-12-09T18:32:29.000Z,6.90
2023-12-09T18:34:58.903Z,6.40
2023-12-09T18:37:26.948Z,6.60
2023-12-09T18:39:54.823Z,6.53
2023-12-09T18:42:22.535Z,6.83
2023-12-09T18:44:50.754Z,6.60
2023-12-09T18:47:20.616Z,5.87
2023-12-09T18:49:49.757Z,6.23
2023-12-09T18:52:17.408Z,7.50
2023-12-09T18:54:45.196Z,7.00
2023-12-09T18:57:13.016Z,6.87
2023-12-09T18:59:40.887Z,5.87
2023-12-09T19:02:14.324Z,6.60
2023-12-09T19:04:44.339Z,6.83
2023-12-09T19:07:14.181Z,6.70
2023-12-09T19:09:43.196Z,6.83
2023-12-09T19:12:11.979Z,6.43
2023-12-09T19:14:39.798Z,6.43
2023-12-09T19:17:07.749Z,5.93
2023-12-09T19:19:35.713Z,6.47
2023-12-09T19:22:04.409Z,6.03
2023-12-09T19:24:33.995Z,6.10
2023-12-09T19:27:02.188Z,6.10
2023-12-09T19:29:29.946Z,6.10
2023-12-09T19:31:57.642Z,6.27
2023-12-09T19:34:25.819Z,6.03
2023-12-09T19:36:53.902Z,5.97
2023-12-09T19:39:21.637Z,5.73
2023-12-09T19:41:50.836Z,5.43
2023-12-09T19:44:18.525Z,5.77
2023-12-09T19:46:46.233Z,5.00
2023-12-09T19:49:13.988Z,5.03
2023-12-09T19:51:41.776Z,5.13
2023-12-09T19:54:09.489Z,5.70
2023-12-09T19:56:37.399Z,5.03
2023-12-09T19:59:06.437Z,4.80
2023-12-09T20:01:34.625Z,4.43
2023-12-09T20:04:02.389Z,4.83
2023-12-09T20:06:30.798Z,4.67
2023-12-09T20:08:59.335Z,4.73
2023-12-09T20:11:27.418Z,4.70
2023-12-09T20:13:55.788Z,4.43
2023-12-09T20:16:25.288Z,5.17
2023-12-09T20:18:53.192Z,4.70
2023-12-09T20:21:20.948Z,4.27
2023-12-09T20:23:49.465Z,4.53
2023-12-09T20:26:17.589Z,5.17
2023-12-09T20:28:45.294Z,4.77
2023-12-09T20:31:14.539Z,4.83
2023-12-09T20:33:43.944Z,4.50
2023-12-09T20:36:11.817Z,4.87
2023-12-09T20:38:39.740Z,5.10
2023-12-09T20:41:07.857Z,4.37
2023-12-09T20:43:36.697Z,5.07
2023-12-09T20:46:05.047Z,5.13
2023-12-09T20:48:32.753Z,4.77
2023-12-09T20:51:01.995Z,5.10
2023-12-09T20:53:30.405Z,5.60
2023-12-09T20:55:58.282Z,5.87
2023-12-09T20:58:26.021Z,5.90
2023-12-09T21:00:53.830Z,6.20
2023-12-09T21:03:21.668Z,6.40
2023-12-09T21:05:49.540Z,6.57
2023-12-09T21:08:18.518Z,7.20
2023-12-09T21:10:46.234Z,7.60
2023-12-09T21:13:13.922Z,6.97
2023-12-09T21:15:42.223Z,6.70
2023-12-09T21:18:10.473Z,7.13
2023-12-09T21:20:37.354Z,7.63
2023-12-09T21:23:05.385Z,7.50
2023-12-09T21:25:34.421Z,7.37
2023-12-09T21:28:02.836Z,7.17
2023-12-09T21:30:30.580Z,7.23
2023-12-09T21:32:58.953Z,7.03
2023-12-09T21:35:26.639Z,7.27
2023-12-09T21:37:54.838Z,6.67
2023-12-09T21:40:22.540Z,7.63
2023-12-09T21:42:51.734Z,7.00
2023-12-09T21:45:19.675Z,7.50
2023-12-09T21:47:48.456Z,7.50
2023-12-09T21:50:16.334Z,7.47
2023-12-09T21:52:44.169Z,7.97
2023-12-09T21:55:12.381Z,8.10
2023-12-09T21:57:40.163Z,7.30
2023-12-09T22:00:10.600Z,7.47
2023-12-09T22:02:38.706Z,7.57
2023-12-09T22:05:07.333Z,7.37
2023-12-09T22:07:35.590Z,6.97
2023-12-09T22:10:03.333Z,7.10
2023-12-09T22:12:31.251Z,7.57
2023-12-09T22:14:59.481Z,7.40
2023-12-09T22:17:28.907Z,7.20
2023-12-09T22:19:56.612Z,7.10
2023-12-09T22:22:24.279Z,7.23
2023-12-09T22:24:52.053Z,7.67
2023-12-09T22:27:19.817Z,8.07
2023-12-09T22:29:47.505Z,7.97
2023-12-09T22:32:15.267Z,8.20
2023-12-09T22:34:44.425Z,7.00
2023-12-09T22:37:12.129Z,7.03
2023-12-09T22:39:41.097Z,6.57
2023-12-09T22:42:08.956Z,7.20
2023-12-09T22:44:36.654Z,6.67
2023-12-09T22:47:04.719Z,7.40
2023-12-09T22:49:32.626Z,6.30
2023-12-09T22:52:03.306Z,6.20
2023-12-09T22:54:32.223Z,6.70
2023-12-09T22:57:00.245Z,5.90
2023-12-09T22:59:28.138Z,6.00
2023-12-09T23:01:56.182Z,5.57
2023-12-09T23:04:23.865Z,6.63
2023-12-09T23:06:51.622Z,5.63
2023-12-09T23:09:20.754Z,5.93
2023-12-09T23:11:50.553Z,6.43
2023-12-09T23:14:18.518Z,6.27
2023-12-09T23:16:46.863Z,6.00
2023-12-09T23:19:14.774Z,5.20
2023-12-09T23:21:43.900Z,6.23
2023-12-09T23:24:12.184Z,6.33
2023-12-09T23:26:41.278Z,5.60
2023-12-09T23:29:10.019Z,5.83
2023-12-09T23:31:41.709Z,5.60
2023-12-09T23:34:10.561Z,6.17
2023-12-09T23:36:38.530Z,5.93
2023-12-09T23:39:06.241Z,6.20
2023-12-09T23:41:33.923Z,5.73
2023-12-09T23:44:03.454Z,5.37
2023-12-09T23:46:31.272Z,5.30
2023-12-09T23:49:00.107Z,5.10
2023-12-09T23:51:27.872Z,5.10
2023-12-09T23:53:55.649Z,5.23
2023-12-09T23:56:24.226Z,4.90
2023-12-09T23:58:52.000Z,4.83
